• Join FlightAware (Why Join?)
  • Login
  • US Flag 
07:01PM EDT


 

Airport Tracker/Info


-or-


 

Live Flight TrackerFlight Track Log ✈ ASQ4674 ✈ 22-Jun-2013 ✈ KIAH - KDTW

Flight Track Log - Related Links

Times and Time Zones

All times are in EDT time to prevent confusion due to time zone crossing. See the ASQ4674 flight status page for this flight to view local times or setup timezone preferences in your user account.

Time Position Orientation Groundspeed Altitude Reporting Facility
EDT Latitude Longitude Course Direction KTS MPH feet Rate Location/Type
07:08PM 29.9783 -95.2958 334° Northwest 163 188 700  Level Houston Center
07:09PM 30.0128 -95.2819 19° North 226 260 1,800 1,620 Climbing Houston Center
07:10PM 30.0906 -95.3061 345° North 274 315 3,700 1,260 Climbing Houston Center
07:11PM 30.2534 -95.4896 332° Northwest  Level FlightAware Approximate
07:11PM 30.1603 -95.3292 344° North 269 310 4,500  Level Houston Center
07:12PM 30.3420 -95.5450 332° Northwest  Level FlightAware Approximate
07:12PM 30.2211 -95.3831 323° Northwest 275 316 7,000  Level Houston Center
07:13PM 30.4327 -95.5959 334° Northwest  Level FlightAware Approximate
07:13PM 30.2836 -95.4372 323° Northwest 279 321 9,100  Level Houston Center
07:14PM 30.3628 -95.5033 324° Northwest 289 333 11,300 1,740 Climbing Houston Center
07:15PM 30.4339 -95.5631 324° Northwest 308 354 12,700 1,200 Climbing Houston Center
07:16PM 30.5131 -95.6258 326° Northwest 338 389 13,800 840 Climbing Houston Center
07:17PM 30.6028 -95.6853 330° Northwest 387 445 14,500 780 Climbing Houston Center
07:18PM 30.7081 -95.7256 342° North 415 478 15,500 960 Climbing Houston Center
07:19PM 30.8169 -95.7450 351° North 410 472 16,500 1,080 Climbing Houston Center
07:20PM 30.9258 -95.7633 352° North 406 467 17,800 1,320 Climbing Houston Center
07:21PM 31.0319 -95.7808 352° North 403 464 19,300 1,560 Climbing Houston Center
07:22PM 31.1542 -95.8031 351° North 374 430 21,100 1,560 Climbing Houston Center
07:23PM 31.2556 -95.8203 352° North 368 423 22,600 1,440 Climbing Houston Center
07:24PM 31.3525 -95.8378 351° North 353 406 24,100 1,440 Climbing Houston Center
07:25PM 31.4492 -95.8544 352° North 348 400 25,600 1,440 Climbing Houston Center
07:26PM 31.5436 -95.8697 352° North 342 394 27,100 1,260 Climbing Houston Center
07:27PM 31.6375 -95.8869 351° North 340 391 28,300 1,020 Climbing Houston Center
07:28PM 31.7319 -95.9033 352° North 341 392 29,300 900 Climbing Houston Center
07:29PM 31.8306 -95.9211 351° North 352 405 30,200 840 Climbing Houston Center
07:30PM 31.9306 -95.9389 351° North 359 413 31,100 840 Climbing Houston Center
07:31PM 32.0325 -95.9561 352° North 366 421 32,000 960 Climbing Houston Center
07:32PM 32.1553 -95.9797 351° North 369 425 33,100 960 Climbing Houston Center
07:33PM 32.2572 -95.9978 351° North 370 426 34,000 840 Climbing Houston Center
07:34PM 32.3606 -96.0158 352° North 371 427 34,900 420 Climbing Houston Center
07:36PM 32.4836 -96.0392 351° North 373 429 35,000  Climbing Fort Worth Center
07:37PM 32.5944 -96.0572 352° North 378 435 35,000  Level Fort Worth Center
07:38PM 32.7114 -96.0800 351° North 396 456 35,000  Level Fort Worth Center
07:39PM 32.8308 -96.1031 351° North 416 479 35,000  Level Fort Worth Center
07:40PM 32.9542 -96.1261 351° North 435 501 35,000  Level Fort Worth Center
07:41PM 33.0775 -96.1467 352° North 446 513 35,000  Level Fort Worth Center
07:42PM 33.2031 -96.1697 351° North 451 519 35,000  Level Fort Worth Center
07:43PM 33.3264 -96.1928 351° North 446 513 35,000  Level Fort Worth Center
07:44PM 33.4372 -96.2136 351° North 446 513 35,000  Level Fort Worth Center
07:45PM 33.5564 -96.2269 355° North 446 513 35,000  Level Fort Worth Center
07:46PM 33.6772 -96.2078 North 434 499 35,000  Level Fort Worth Center
07:47PM 33.7958 -96.1861 North 434 499 35,000  Level Fort Worth Center
07:48PM 33.9167 -96.1694 North 434 499 35,000  Level Fort Worth Center
07:49PM 34.0375 -96.1503 North 434 499 35,000  Level Fort Worth Center
07:50PM 34.1625 -96.1283 North 423 487 35,000  Level Fort Worth Center
07:51PM 34.2792 -96.1092 North 417 480 35,000  Level Fort Worth Center
07:52PM 34.3981 -96.0897 North 422 486 35,000  Level Fort Worth Center
07:53PM 34.5167 -96.0678 North 427 491 35,000  Level Fort Worth Center
07:54PM 34.6353 -96.0481 North 427 491 35,000  Level Fort Worth Center
07:55PM 34.7542 -96.0286 North 427 491 35,000  Level Fort Worth Center
07:56PM 34.8708 -96.0089 North 427 491 35,000  Level Fort Worth Center
07:58PM 35.0775 -95.8778 27° Northeast 432 497 35,000  Level Kansas City Center
07:59PM 35.1789 -95.7961 33° Northeast 435 501 35,000  Level Kansas City Center
08:00PM 35.2797 -95.7169 33° Northeast 438 504 35,000  Level Kansas City Center
08:01PM 35.3814 -95.6358 33° Northeast 437 503 35,000  Level Kansas City Center
08:02PM 35.4833 -95.5536 33° Northeast 437 503 35,000  Level Kansas City Center
08:03PM 35.6050 -95.4586 32° Northeast 434 499 35,000  Level Kansas City Center
08:04PM 35.7069 -95.3758 33° Northeast 435 501 35,000  Level Kansas City Center
08:05PM 35.8078 -95.2928 34° Northeast 436 502 35,000  Level Kansas City Center
08:06PM 35.9094 -95.2086 34° Northeast 438 504 35,000  Level Kansas City Center
08:07PM 36.0106 -95.1247 34° Northeast 439 505 35,000  Level Kansas City Center
08:08PM 36.1122 -95.0422 33° Northeast 440 506 35,000  Level Kansas City Center
08:09PM 36.2144 -94.9578 34° Northeast 445 512 35,000  Level Kansas City Center
08:10PM 36.3367 -94.8561 34° Northeast 445 512 35,000  Level Kansas City Center
08:11PM 36.4389 -94.7728 33° Northeast 443 510 35,000  Level Kansas City Center
08:12PM 36.5425 -94.6892 33° Northeast 444 511 35,000  Level Kansas City Center
08:13PM 36.6456 -94.6025 34° Northeast 447 514 35,000  Level Kansas City Center
08:14PM 36.7483 -94.5161 34° Northeast 446 513 35,000  Level Kansas City Center
08:15PM 36.8497 -94.4294 34° Northeast 444 511 35,000  Level Kansas City Center
08:16PM 36.9453 -94.3339 39° Northeast 440 506 35,000  Level Kansas City Center
08:17PM 37.0450 -94.2367 38° Northeast 450 518 35,000  Level Kansas City Center
08:18PM 37.1444 -94.1400 38° Northeast 452 520 35,000  Level Kansas City Center
08:19PM 37.2597 -94.0286 38° Northeast 453 521 35,000  Level Kansas City Center
08:20PM 37.3594 -93.9283 39° Northeast 455 524 35,000  Level Kansas City Center
08:21PM 37.4600 -93.8317 37° Northeast 451 519 35,000  Level Kansas City Center
08:22PM 37.5611 -93.7308 38° Northeast 457 526 35,000  Level Kansas City Center
08:23PM 37.6614 -93.6300 39° Northeast 458 527 35,000  Level Kansas City Center
08:24PM 37.7569 -93.5281 40° Northeast 452 520 35,000  Level Kansas City Center
08:25PM 37.8583 -93.4264 38° Northeast 458 527 35,000  Level Kansas City Center
08:26PM 37.9600 -93.3242 38° Northeast 462 532 35,000  Level Kansas City Center
08:27PM 38.0614 -93.2211 39° Northeast 463 533 35,000  Level Kansas City Center
08:28PM 38.1856 -93.0953 39° Northeast 470 541 35,000  Level Kansas City Center
08:29PM 38.2908 -92.9906 38° Northeast 473 544 35,000  Level Kansas City Center
08:30PM 38.3933 -92.8833 39° Northeast 473 544 35,000  Level Kansas City Center
08:31PM 38.4972 -92.7767 39° Northeast 474 545 35,000  Level Kansas City Center
08:32PM 38.6003 -92.6706 39° Northeast 473 544 35,000  Level Kansas City Center
08:33PM 38.7019 -92.5642 39° Northeast 470 541 35,000  Level Kansas City Center
08:34PM 38.8047 -92.4556 39° Northeast 474 545 35,000  Level Kansas City Center
08:35PM 38.9089 -92.3472 39° Northeast 477 549 35,000  Level Kansas City Center
08:36PM 39.0122 -92.2386 39° Northeast 478 550 35,000  Level Kansas City Center
08:38PM 39.1150 -92.1250 41° Northeast 482 555 35,000  Level Kansas City Center
08:39PM 39.1947 -91.9919 52° Northeast 468 539 35,000  Level Kansas City Center
08:40PM 39.2664 -91.8531 56° Northeast 468 539 35,000  Level Kansas City Center
08:41PM 39.3317 -91.7175 58° Northeast 454 522 35,000  Level Kansas City Center
08:42PM 39.4050 -91.5722 57° Northeast 455 524 35,000  Level Kansas City Center
08:43PM 39.4731 -91.4314 58° Northeast 460 529 35,000  Level Kansas City Center
08:44PM 39.5433 -91.2897 57° Northeast 465 535 35,000  Level Kansas City Center
08:45PM 39.6117 -91.1489 58° Northeast 463 533 35,000  Level Kansas City Center
08:46PM 39.6933 -90.9800 58° Northeast 460 529 35,000  Level Kansas City Center
08:47PM 39.7575 -90.8483 58° Northeast 442 509 35,000  Level Kansas City Center
08:48PM 39.8208 -90.7139 58° Northeast 453 521 35,000  Level Kansas City Center
08:49PM 39.8872 -90.5736 58° Northeast 456 525 35,000  Level Kansas City Center
08:50PM 39.9544 -90.4344 58° Northeast 456 525 35,000  Level Kansas City Center
08:51PM 40.0186 -90.2942 59° Northeast 454 522 35,000  Level Kansas City Center
08:52PM 40.0839 -90.1533 59° Northeast 454 522 35,000  Level Kansas City Center
08:53PM 40.1603 -89.9836 59° Northeast 457 526 35,000  Level Kansas City Center
08:54PM 40.2261 -89.8436 58° Northeast 453 521 35,000  Level Kansas City Center
08:55PM 40.2911 -89.7047 58° Northeast 449 517 35,000  Level Kansas City Center
08:56PM 40.3544 -89.5650 59° Northeast 449 517 35,000  Level Kansas City Center
08:57PM 40.4181 -89.4247 59° Northeast 451 519 35,000  Level Kansas City Center
08:58PM 40.4825 -89.2839 59° Northeast 452 520 35,000  Level Kansas City Center
08:59PM 40.5458 -89.1442 59° Northeast 450 518 35,000  Level Kansas City Center
09:00PM 40.6236 -88.9764 59° Northeast 450 518 35,000  Level Kansas City Center
09:01PM 40.6864 -88.8331 60° Northeast 452 520 35,000  Level Kansas City Center
09:02PM 40.7608 -88.6697 59° Northeast 445 512 35,000  Level Chicago Center
09:03PM 40.8242 -88.5281 59° Northeast 451 519 35,000  Level Chicago Center
09:04PM 40.8872 -88.3872 59° Northeast 448 516 35,000  Level Chicago Center
09:05PM 40.9481 -88.2450 60° Northeast 448 516 35,000  Level Chicago Center
09:06PM 41.0217 -88.0717 61° Northeast 457 526 35,000  Level Chicago Center
09:07PM 41.0844 -87.9289 60° Northeast 457 526 35,000  Level Chicago Center
09:08PM 41.1453 -87.7881 60° Northeast 450 518 35,000 -540 Level Chicago Center
09:09PM 41.2078 -87.6450 60° Northeast 454 522 33,900 -1,020 Descending Chicago Center
09:10PM 41.2708 -87.4994 60° Northeast 459 528 33,000 -480 Descending Chicago Center
09:11PM 41.3436 -87.3294 60° Northeast 443 510 33,000  Level Chicago Center
09:12PM 41.4036 -87.1886 60° Northeast 443 510 33,000  Level Chicago Center
09:14PM 41.4619 -87.0492 61° Northeast 438 504 33,000 -780 Level Chicago Center
09:15PM 41.5225 -86.9094 60° Northeast 439 505 31,500 -1,920 Descending Chicago Center
09:16PM 41.5839 -86.7639 61° Northeast 452 520 29,100 -2,460 Descending Chicago Center
09:17PM 41.6472 -86.6133 61° Northeast 456 525 26,500 -2,460 Descending Chicago Center
09:18PM 41.7100 -86.4636 61° Northeast 461 531 24,100 -2,040 Descending Chicago Center
09:19PM 41.7694 -86.3172 61° Northeast 452 520 22,400 -1,560 Descending Chicago Center
09:20PM 41.8061 -86.1647 72° East 435 501 21,000 -960 Descending Chicago Center
09:21PM 41.8358 -85.9853 77° East 414 476 20,500 -840 Descending Chicago Center
09:22PM 41.8642 -85.8292 76° East 425 489 19,400 -780 Descending Chicago Center
09:23PM 41.8939 -85.6778 75° East 420 483 19,000 -240 Descending Chicago Center
09:24PM 41.9150 -85.5250 79° East 418 481 19,000  Level Chicago Center
09:25PM 41.9081 -85.3700 93° East 414 476 19,000  Level Chicago Center
09:26PM 41.8978 -85.2150 95° East 415 478 19,000  Level Chicago Center
09:27PM 41.8894 -85.0631 94° East 409 471 19,000  Level Chicago Center
09:28PM 41.8814 -84.9119 94° East 408 470 19,000  Level Chicago Center
09:29PM 41.8714 -84.7528 95° East 427 491 19,000  Level Chicago Center
09:30PM 41.8625 -84.5919 94° East 429 494 19,000 -960 Level Chicago Center
09:31PM 41.8503 -84.4108 95° East 410 472 17,100 -2,100 Descending Cleveland Center
09:32PM 41.8408 -84.2542 95° East 379 436 14,500 -2,040 Descending Cleveland Center
09:33PM 41.8283 -84.1197 97° East 372 428 12,700 -1,140 Descending Cleveland Center
09:34PM 41.8614 -83.9847 72° East 315 362 12,000 -360 Descending Cleveland Center
09:35PM 41.8992 -83.9058 57° Northeast 300 345 12,000  Level Cleveland Center
09:36PM 41.9664 -83.8200 43° Northeast 370 426 12,000  Level Cleveland Center
09:37PM 42.0444 -83.7094 46° Northeast 353 406 12,000  Level Cleveland Center
09:38PM 42.1181 -83.6094 45° Northeast 363 418 12,000 -300 Level Cleveland Center
09:39PM 42.1889 -83.5369 37° Northeast 291 335 11,500 -1,620 Descending Cleveland Center
09:40PM 42.2631 -83.4872 26° Northeast 289 333 8,900 -2,760 Descending Cleveland Center
09:41PM 42.3308 -83.4397 27° Northeast 281 323 6,000 -2,760 Descending Cleveland Center
09:42PM 42.3639 -83.3653 59° Northeast 273 314 3,700 -1,620 Descending Cleveland Center
09:43PM 42.3300 -83.2992 125° Southeast 179 206 2,900 -780 Descending Cleveland Center
09:44PM 42.2878 -83.3225 202° Southwest 123 142 2,000 -780 Descending Cleveland Center